Tabor, South Dakota
Current Conditions -  °F | °C
As of 6:35 AM on Friday 31 Oct 2014 (Local Time) from KYKN Reporting Station
Clear Clear  
Wind Chill: 11°   Ceiling: Unl
Heat Index: 21°   Visibility: 10mi
Dew Point: 18°   Wind: 9mph
Humidity: 86%   Direction: 330°NNW
Pressure: 30.59"   Gusts: NA
Location:  42.95°N, 97.66°W
Report Text: KYKN 311135Z AUTO 33008KT 10SM CLR M06/M08 A3059 RMK AO1
Loading
Personal Weather Stations






























Interactive Weather Map
Tropical Storm Tracking
New forecast layout! Learn more

10-Day Weather Forecast

Advertisements
Track Severe Weather on mobile